sensor_id;sensor_type;location;lat;lon;timestamp;temperature;humidity
39983;DHT22;25670;44.782;10.356;2023-05-10T00:01:53;14.00;99.90
39983;DHT22;25670;44.782;10.356;2023-05-10T00:04:20;13.80;99.90
39983;DHT22;25670;44.782;10.356;2023-05-10T00:06:47;13.90;99.90
39983;DHT22;25670;44.782;10.356;2023-05-10T00:09:14;13.90;99.90
39983;DHT22;25670;44.782;10.356;2023-05-10T00:11:46;14.00;99.90
39983;DHT22;25670;44.782;10.356;2023-05-10T00:14:13;13.80;99.90
39983;DHT22;25670;44.782;10.356;2023-05-10T00:16:39;13.90;99.90
39983;DHT22;25670;44.782;10.356;2023-05-10T00:19:06;13.90;99.90
39983;DHT22;25670;44.782;10.356;2023-05-10T00:21:32;14.30;99.90
39983;DHT22;25670;44.782;10.356;2023-05-10T00:28:55;13.90;99.90
39983;DHT22;25670;44.782;10.356;2023-05-10T00:31:21;13.30;99.90
39983;DHT22;25670;44.782;10.356;2023-05-10T00:36:14;13.90;99.90
39983;DHT22;25670;44.782;10.356;2023-05-10T00:38:41;13.90;99.90
39983;DHT22;25670;44.782;10.356;2023-05-10T00:41:07;13.80;99.90
39983;DHT22;25670;44.782;10.356;2023-05-10T00:43:35;13.40;99.90
39983;DHT22;25670;44.782;10.356;2023-05-10T00:46:04;13.80;99.90
39983;DHT22;25670;44.782;10.356;2023-05-10T00:48:32;13.70;99.90
39983;DHT22;25670;44.782;10.356;2023-05-10T00:56:51;14.10;99.90
39983;DHT22;25670;44.782;10.356;2023-05-10T01:00:02;14.10;99.90
39983;DHT22;25670;44.782;10.356;2023-05-10T01:02:35;14.00;99.90
39983;DHT22;25670;44.782;10.356;2023-05-10T01:05:03;14.00;99.90
39983;DHT22;25670;44.782;10.356;2023-05-10T01:09:57;13.90;99.90
39983;DHT22;25670;44.782;10.356;2023-05-10T01:14:50;13.30;99.90
39983;DHT22;25670;44.782;10.356;2023-05-10T01:17:17;13.90;99.90
39983;DHT22;25670;44.782;10.356;2023-05-10T01:19:44;13.90;99.90
39983;DHT22;25670;44.782;10.356;2023-05-10T01:33:56;13.90;99.90
39983;DHT22;25670;44.782;10.356;2023-05-10T01:36:38;13.90;99.90
39983;DHT22;25670;44.782;10.356;2023-05-10T01:42:06;13.90;99.90
39983;DHT22;25670;44.782;10.356;2023-05-10T01:44:46;14.00;99.90
39983;DHT22;25670;44.782;10.356;2023-05-10T01:47:20;13.90;99.90
39983;DHT22;25670;44.782;10.356;2023-05-10T01:49:54;12.20;99.90
39983;DHT22;25670;44.782;10.356;2023-05-10T01:52:33;14.00;99.90
39983;DHT22;25670;44.782;10.356;2023-05-10T01:55:10;14.10;99.90
39983;DHT22;25670;44.782;10.356;2023-05-10T01:57:39;14.00;99.90
39983;DHT22;25670;44.782;10.356;2023-05-10T02:00:09;14.00;99.90
39983;DHT22;25670;44.782;10.356;2023-05-10T02:02:45;13.90;99.90
39983;DHT22;25670;44.782;10.356;2023-05-10T02:05:14;14.00;99.90
39983;DHT22;25670;44.782;10.356;2023-05-10T02:07:42;14.10;99.90
39983;DHT22;25670;44.782;10.356;2023-05-10T02:10:11;13.90;99.90
39983;DHT22;25670;44.782;10.356;2023-05-10T02:12:43;14.00;99.90
39983;DHT22;25670;44.782;10.356;2023-05-10T02:15:17;14.40;99.90
39983;DHT22;25670;44.782;10.356;2023-05-10T02:17:45;14.00;99.90
39983;DHT22;25670;44.782;10.356;2023-05-10T02:20:12;13.80;99.90
39983;DHT22;25670;44.782;10.356;2023-05-10T02:22:41;14.00;99.90
39983;DHT22;25670;44.782;10.356;2023-05-10T02:25:08;14.00;99.90
39983;DHT22;25670;44.782;10.356;2023-05-10T02:27:37;14.20;99.90
39983;DHT22;25670;44.782;10.356;2023-05-10T02:30:06;14.10;99.90
39983;DHT22;25670;44.782;10.356;2023-05-10T02:32:59;13.90;99.90
39983;DHT22;25670;44.782;10.356;2023-05-10T02:35:27;13.70;99.90
39983;DHT22;25670;44.782;10.356;2023-05-10T02:37:54;11.70;99.90
39983;DHT22;25670;44.782;10.356;2023-05-10T02:40:21;13.80;99.90
39983;DHT22;25670;44.782;10.356;2023-05-10T02:42:52;13.90;99.90
39983;DHT22;25670;44.782;10.356;2023-05-10T02:45:23;13.90;99.90
39983;DHT22;25670;44.782;10.356;2023-05-10T02:47:54;13.80;99.90
39983;DHT22;25670;44.782;10.356;2023-05-10T02:50:27;13.70;99.90
39983;DHT22;25670;44.782;10.356;2023-05-10T02:53:22;13.80;99.90
39983;DHT22;25670;44.782;10.356;2023-05-10T02:55:52;13.70;99.90
39983;DHT22;25670;44.782;10.356;2023-05-10T02:58:22;13.60;99.90
39983;DHT22;25670;44.782;10.356;2023-05-10T03:03:21;13.60;99.90
39983;DHT22;25670;44.782;10.356;2023-05-10T03:06:03;13.70;99.90
39983;DHT22;25670;44.782;10.356;2023-05-10T03:08:39;13.70;99.90
39983;DHT22;25670;44.782;10.356;2023-05-10T03:21:32;13.70;99.90
39983;DHT22;25670;44.782;10.356;2023-05-10T03:24:20;13.70;99.90
39983;DHT22;25670;44.782;10.356;2023-05-10T03:26:48;13.70;99.90
39983;DHT22;25670;44.782;10.356;2023-05-10T03:29:17;13.60;99.90
39983;DHT22;25670;44.782;10.356;2023-05-10T03:39:18;13.60;99.90
39983;DHT22;25670;44.782;10.356;2023-05-10T03:41:49;13.50;99.90
39983;DHT22;25670;44.782;10.356;2023-05-10T03:44:19;13.50;99.90
39983;DHT22;25670;44.782;10.356;2023-05-10T03:46:58;13.60;99.90
39983;DHT22;25670;44.782;10.356;2023-05-10T03:49:48;13.60;99.90
39983;DHT22;25670;44.782;10.356;2023-05-10T03:52:24;13.50;99.90
39983;DHT22;25670;44.782;10.356;2023-05-10T03:54:54;13.30;99.90
39983;DHT22;25670;44.782;10.356;2023-05-10T03:57:29;13.50;99.90
39983;DHT22;25670;44.782;10.356;2023-05-10T04:03:12;11.30;99.90
39983;DHT22;25670;44.782;10.356;2023-05-10T04:13:05;13.40;99.90
39983;DHT22;25670;44.782;10.356;2023-05-10T04:20:25;13.40;99.90
39983;DHT22;25670;44.782;10.356;2023-05-10T04:22:52;13.30;99.90
39983;DHT22;25670;44.782;10.356;2023-05-10T04:25:19;13.30;99.90
39983;DHT22;25670;44.782;10.356;2023-05-10T04:27:45;13.10;99.90
39983;DHT22;25670;44.782;10.356;2023-05-10T04:30:21;13.20;99.90
39983;DHT22;25670;44.782;10.356;2023-05-10T04:32:50;13.20;99.90
39983;DHT22;25670;44.782;10.356;2023-05-10T04:37:44;13.20;99.90
39983;DHT22;25670;44.782;10.356;2023-05-10T04:40:25;13.30;99.90
39983;DHT22;25670;44.782;10.356;2023-05-10T04:45:18;13.30;99.90
39983;DHT22;25670;44.782;10.356;2023-05-10T04:50:14;13.40;99.90
39983;DHT22;25670;44.782;10.356;2023-05-10T04:55:08;13.50;99.90
39983;DHT22;25670;44.782;10.356;2023-05-10T05:00:12;13.50;99.90
39983;DHT22;25670;44.782;10.356;2023-05-10T05:05:05;13.70;99.90
39983;DHT22;25670;44.782;10.356;2023-05-10T05:07:32;13.70;99.90
39983;DHT22;25670;44.782;10.356;2023-05-10T05:09:58;13.80;99.90
39983;DHT22;25670;44.782;10.356;2023-05-10T05:12:24;13.70;99.90
39983;DHT22;25670;44.782;10.356;2023-05-10T05:17:17;12.50;99.90
39983;DHT22;25670;44.782;10.356;2023-05-10T05:22:10;13.20;99.90
39983;DHT22;25670;44.782;10.356;2023-05-10T05:29:31;13.00;99.90
39983;DHT22;25670;44.782;10.356;2023-05-10T05:31:58;13.00;99.90
39983;DHT22;25670;44.782;10.356;2023-05-10T05:36:52;12.90;99.90
39983;DHT22;25670;44.782;10.356;2023-05-10T05:39:18;13.00;99.90
39983;DHT22;25670;44.782;10.356;2023-05-10T05:41:44;12.90;99.90
39983;DHT22;25670;44.782;10.356;2023-05-10T05:46:37;13.00;99.90
39983;DHT22;25670;44.782;10.356;2023-05-10T05:51:30;12.70;99.90
39983;DHT22;25670;44.782;10.356;2023-05-10T06:01:17;12.60;99.90
39983;DHT22;25670;44.782;10.356;2023-05-10T06:03:46;12.50;99.90
39983;DHT22;25670;44.782;10.356;2023-05-10T06:16:02;12.40;99.90
39983;DHT22;25670;44.782;10.356;2023-05-10T06:18:28;12.40;99.90
39983;DHT22;25670;44.782;10.356;2023-05-10T06:23:22;12.30;99.90
39983;DHT22;25670;44.782;10.356;2023-05-10T06:28:15;12.40;99.90
39983;DHT22;25670;44.782;10.356;2023-05-10T06:30:41;12.50;99.90
39983;DHT22;25670;44.782;10.356;2023-05-10T06:33:08;12.40;99.90
39983;DHT22;25670;44.782;10.356;2023-05-10T06:35:37;12.10;99.90
39983;DHT22;25670;44.782;10.356;2023-05-10T06:38:03;12.40;99.90
39983;DHT22;25670;44.782;10.356;2023-05-10T06:42:56;11.90;99.90
39983;DHT22;25670;44.782;10.356;2023-05-10T06:45:22;12.40;99.90
39983;DHT22;25670;44.782;10.356;2023-05-10T06:50:15;12.40;99.90
39983;DHT22;25670;44.782;10.356;2023-05-10T06:57:35;12.40;99.90
39983;DHT22;25670;44.782;10.356;2023-05-10T07:00:03;12.20;99.90
39983;DHT22;25670;44.782;10.356;2023-05-10T07:02:36;12.20;99.90
39983;DHT22;25670;44.782;10.356;2023-05-10T07:05:03;12.30;99.90
39983;DHT22;25670;44.782;10.356;2023-05-10T07:12:27;12.20;99.90
39983;DHT22;25670;44.782;10.356;2023-05-10T07:14:53;12.10;99.90
39983;DHT22;25670;44.782;10.356;2023-05-10T07:17:19;12.10;99.90
39983;DHT22;25670;44.782;10.356;2023-05-10T07:19:46;12.10;99.90
39983;DHT22;25670;44.782;10.356;2023-05-10T07:22:12;12.00;99.90
39983;DHT22;25670;44.782;10.356;2023-05-10T07:24:38;12.00;99.90
39983;DHT22;25670;44.782;10.356;2023-05-10T07:27:05;12.00;99.90
39983;DHT22;25670;44.782;10.356;2023-05-10T07:29:32;12.10;99.90
39983;DHT22;25670;44.782;10.356;2023-05-10T07:31:59;12.00;99.90
39983;DHT22;25670;44.782;10.356;2023-05-10T07:34:28;12.10;99.90
39983;DHT22;25670;44.782;10.356;2023-05-10T07:36:58;12.20;99.90
39983;DHT22;25670;44.782;10.356;2023-05-10T07:39:25;12.00;99.90
39983;DHT22;25670;44.782;10.356;2023-05-10T07:41:51;12.00;99.90
39983;DHT22;25670;44.782;10.356;2023-05-10T07:44:18;12.10;99.90
39983;DHT22;25670;44.782;10.356;2023-05-10T07:46:45;12.20;99.90
39983;DHT22;25670;44.782;10.356;2023-05-10T07:49:11;12.20;99.90
39983;DHT22;25670;44.782;10.356;2023-05-10T07:51:37;12.10;99.90
39983;DHT22;25670;44.782;10.356;2023-05-10T07:54:04;12.00;99.90
39983;DHT22;25670;44.782;10.356;2023-05-10T07:56:31;12.00;99.90
39983;DHT22;25670;44.782;10.356;2023-05-10T07:58:59;12.10;99.90
39983;DHT22;25670;44.782;10.356;2023-05-10T08:01:26;12.10;99.90
39983;DHT22;25670;44.782;10.356;2023-05-10T08:06:20;12.10;99.90
39983;DHT22;25670;44.782;10.356;2023-05-10T08:08:47;12.00;99.90
39983;DHT22;25670;44.782;10.356;2023-05-10T08:11:16;12.00;99.90
39983;DHT22;25670;44.782;10.356;2023-05-10T08:13:44;11.90;99.90
39983;DHT22;25670;44.782;10.356;2023-05-10T08:16:11;11.90;99.90
39983;DHT22;25670;44.782;10.356;2023-05-10T08:18:40;12.10;99.90
39983;DHT22;25670;44.782;10.356;2023-05-10T08:21:06;12.00;99.90
39983;DHT22;25670;44.782;10.356;2023-05-10T08:23:33;12.00;99.90
39983;DHT22;25670;44.782;10.356;2023-05-10T08:26:00;12.20;99.90
39983;DHT22;25670;44.782;10.356;2023-05-10T08:28:26;12.00;99.90
39983;DHT22;25670;44.782;10.356;2023-05-10T08:30:53;11.90;99.90
39983;DHT22;25670;44.782;10.356;2023-05-10T08:33:22;11.90;99.90
39983;DHT22;25670;44.782;10.356;2023-05-10T08:35:48;12.00;99.90
39983;DHT22;25670;44.782;10.356;2023-05-10T08:38:14;11.90;99.90
39983;DHT22;25670;44.782;10.356;2023-05-10T08:40:42;12.00;99.90
39983;DHT22;25670;44.782;10.356;2023-05-10T08:43:11;12.00;99.90
39983;DHT22;25670;44.782;10.356;2023-05-10T08:45:42;11.90;99.90
39983;DHT22;25670;44.782;10.356;2023-05-10T08:48:10;11.90;99.90
39983;DHT22;25670;44.782;10.356;2023-05-10T08:50:40;11.80;99.90
39983;DHT22;25670;44.782;10.356;2023-05-10T08:53:10;11.80;99.90
39983;DHT22;25670;44.782;10.356;2023-05-10T08:55:37;11.70;99.90
39983;DHT22;25670;44.782;10.356;2023-05-10T08:58:05;11.80;99.90
39983;DHT22;25670;44.782;10.356;2023-05-10T09:00:32;11.40;99.90
39983;DHT22;25670;44.782;10.356;2023-05-10T09:02:59;11.70;99.90
39983;DHT22;25670;44.782;10.356;2023-05-10T09:05:26;11.70;99.90
39983;DHT22;25670;44.782;10.356;2023-05-10T09:07:52;11.80;99.90
39983;DHT22;25670;44.782;10.356;2023-05-10T09:10:19;11.60;99.90
39983;DHT22;25670;44.782;10.356;2023-05-10T09:12:46;12.00;99.90
39983;DHT22;25670;44.782;10.356;2023-05-10T09:15:15;11.70;99.90
39983;DHT22;25670;44.782;10.356;2023-05-10T09:17:43;11.80;99.90
39983;DHT22;25670;44.782;10.356;2023-05-10T09:22:36;11.30;99.90
39983;DHT22;25670;44.782;10.356;2023-05-10T09:25:14;11.80;99.90
39983;DHT22;25670;44.782;10.356;2023-05-10T09:27:44;11.70;99.90
39983;DHT22;25670;44.782;10.356;2023-05-10T09:30:25;11.80;99.90
39983;DHT22;25670;44.782;10.356;2023-05-10T09:32:52;11.80;99.90
39983;DHT22;25670;44.782;10.356;2023-05-10T09:35:20;12.30;99.90
39983;DHT22;25670;44.782;10.356;2023-05-10T09:37:49;11.80;99.90
39983;DHT22;25670;44.782;10.356;2023-05-10T09:40:23;12.00;99.90
39983;DHT22;25670;44.782;10.356;2023-05-10T09:43:08;11.90;99.90
39983;DHT22;25670;44.782;10.356;2023-05-10T09:45:38;12.10;99.90
39983;DHT22;25670;44.782;10.356;2023-05-10T09:50:33;12.00;99.90
39983;DHT22;25670;44.782;10.356;2023-05-10T09:53:02;12.00;99.90
39983;DHT22;25670;44.782;10.356;2023-05-10T09:55:43;12.00;99.90
39983;DHT22;25670;44.782;10.356;2023-05-10T09:58:15;12.00;99.90
39983;DHT22;25670;44.782;10.356;2023-05-10T10:00:43;12.10;99.90
39983;DHT22;25670;44.782;10.356;2023-05-10T10:03:18;12.10;99.90
39983;DHT22;25670;44.782;10.356;2023-05-10T10:05:46;12.10;99.90
39983;DHT22;25670;44.782;10.356;2023-05-10T10:08:13;12.20;99.90
39983;DHT22;25670;44.782;10.356;2023-05-10T10:10:40;11.90;99.90
39983;DHT22;25670;44.782;10.356;2023-05-10T10:13:07;12.10;99.90
39983;DHT22;25670;44.782;10.356;2023-05-10T10:15:34;12.10;99.90
39983;DHT22;25670;44.782;10.356;2023-05-10T10:18:01;12.10;99.90
39983;DHT22;25670;44.782;10.356;2023-05-10T10:20:29;12.20;99.90
39983;DHT22;25670;44.782;10.356;2023-05-10T10:22:55;12.30;99.90
39983;DHT22;25670;44.782;10.356;2023-05-10T10:36:01;12.30;99.90
39983;DHT22;25670;44.782;10.356;2023-05-10T10:41:40;12.40;99.90
39983;DHT22;25670;44.782;10.356;2023-05-10T10:52:26;12.20;99.90
39983;DHT22;25670;44.782;10.356;2023-05-10T10:55:11;12.30;99.90
39983;DHT22;25670;44.782;10.356;2023-05-10T10:57:48;12.40;99.90
39983;DHT22;25670;44.782;10.356;2023-05-10T11:07:57;12.30;99.90
39983;DHT22;25670;44.782;10.356;2023-05-10T11:10:25;12.20;99.90
39983;DHT22;25670;44.782;10.356;2023-05-10T11:13:05;12.30;99.90
39983;DHT22;25670;44.782;10.356;2023-05-10T11:15:33;11.90;99.90
39983;DHT22;25670;44.782;10.356;2023-05-10T11:18:16;12.10;99.90
39983;DHT22;25670;44.782;10.356;2023-05-10T11:20:42;12.20;99.90
39983;DHT22;25670;44.782;10.356;2023-05-10T11:23:13;12.60;99.90
39983;DHT22;25670;44.782;10.356;2023-05-10T11:25:45;12.40;99.90
39983;DHT22;25670;44.782;10.356;2023-05-10T11:28:12;12.40;99.90
39983;DHT22;25670;44.782;10.356;2023-05-10T11:30:40;12.70;99.90
39983;DHT22;25670;44.782;10.356;2023-05-10T11:33:07;12.40;99.90
39983;DHT22;25670;44.782;10.356;2023-05-10T11:35:38;13.40;99.90
39983;DHT22;25670;44.782;10.356;2023-05-10T11:38:12;12.60;99.90
39983;DHT22;25670;44.782;10.356;2023-05-10T11:40:39;12.50;99.90
39983;DHT22;25670;44.782;10.356;2023-05-10T11:43:06;12.50;99.90
39983;DHT22;25670;44.782;10.356;2023-05-10T11:45:32;12.50;99.90
39983;DHT22;25670;44.782;10.356;2023-05-10T11:47:59;12.40;99.90
39983;DHT22;25670;44.782;10.356;2023-05-10T11:50:27;12.50;99.90
39983;DHT22;25670;44.782;10.356;2023-05-10T11:52:55;12.40;99.90
39983;DHT22;25670;44.782;10.356;2023-05-10T11:55:21;12.50;99.90
39983;DHT22;25670;44.782;10.356;2023-05-10T11:57:51;12.60;99.90
39983;DHT22;25670;44.782;10.356;2023-05-10T12:00:18;12.60;99.90
39983;DHT22;25670;44.782;10.356;2023-05-10T12:02:44;12.60;99.90
39983;DHT22;25670;44.782;10.356;2023-05-10T12:05:10;12.60;99.90
39983;DHT22;25670;44.782;10.356;2023-05-10T12:07:37;12.60;99.90
39983;DHT22;25670;44.782;10.356;2023-05-10T12:12:41;12.70;99.90
39983;DHT22;25670;44.782;10.356;2023-05-10T12:15:12;12.70;99.90
39983;DHT22;25670;44.782;10.356;2023-05-10T12:17:44;12.70;99.90
39983;DHT22;25670;44.782;10.356;2023-05-10T12:20:21;12.60;99.90
39983;DHT22;25670;44.782;10.356;2023-05-10T12:22:50;12.50;99.90
39983;DHT22;25670;44.782;10.356;2023-05-10T12:25:18;12.50;99.90
39983;DHT22;25670;44.782;10.356;2023-05-10T12:27:52;12.60;99.90
39983;DHT22;25670;44.782;10.356;2023-05-10T12:30:24;12.60;99.90
39983;DHT22;25670;44.782;10.356;2023-05-10T12:32:51;12.40;99.90
39983;DHT22;25670;44.782;10.356;2023-05-10T12:35:18;12.50;99.90
39983;DHT22;25670;44.782;10.356;2023-05-10T12:37:51;12.60;99.90
39983;DHT22;25670;44.782;10.356;2023-05-10T12:40:17;12.70;99.90
39983;DHT22;25670;44.782;10.356;2023-05-10T12:42:43;12.80;99.90
39983;DHT22;25670;44.782;10.356;2023-05-10T12:45:13;13.00;99.90
39983;DHT22;25670;44.782;10.356;2023-05-10T12:47:39;13.20;99.90
39983;DHT22;25670;44.782;10.356;2023-05-10T12:50:06;13.10;99.90
39983;DHT22;25670;44.782;10.356;2023-05-10T12:52:32;13.20;99.90
39983;DHT22;25670;44.782;10.356;2023-05-10T12:54:59;13.30;99.90
39983;DHT22;25670;44.782;10.356;2023-05-10T12:57:26;13.30;99.90
39983;DHT22;25670;44.782;10.356;2023-05-10T12:59:54;13.70;99.90
39983;DHT22;25670;44.782;10.356;2023-05-10T13:02:20;13.60;99.90
39983;DHT22;25670;44.782;10.356;2023-05-10T13:04:52;13.90;99.90
39983;DHT22;25670;44.782;10.356;2023-05-10T13:07:18;13.90;99.90
39983;DHT22;25670;44.782;10.356;2023-05-10T13:09:44;14.00;99.90
39983;DHT22;25670;44.782;10.356;2023-05-10T13:12:11;13.90;99.90
39983;DHT22;25670;44.782;10.356;2023-05-10T13:14:37;13.90;99.90
39983;DHT22;25670;44.782;10.356;2023-05-10T13:17:06;14.00;99.90
39983;DHT22;25670;44.782;10.356;2023-05-10T13:19:33;14.00;99.90
39983;DHT22;25670;44.782;10.356;2023-05-10T13:21:59;13.90;99.90
39983;DHT22;25670;44.782;10.356;2023-05-10T13:24:25;13.90;99.90
39983;DHT22;25670;44.782;10.356;2023-05-10T13:26:51;13.90;99.90
39983;DHT22;25670;44.782;10.356;2023-05-10T13:29:18;14.10;99.90
39983;DHT22;25670;44.782;10.356;2023-05-10T13:31:45;14.10;99.90
39983;DHT22;25670;44.782;10.356;2023-05-10T13:34:12;14.30;99.90
39983;DHT22;25670;44.782;10.356;2023-05-10T13:39:08;14.60;99.90
39983;DHT22;25670;44.782;10.356;2023-05-10T13:44:03;15.10;99.90
39983;DHT22;25670;44.782;10.356;2023-05-10T13:46:30;15.30;99.90
39983;DHT22;25670;44.782;10.356;2023-05-10T13:48:56;15.30;99.90
39983;DHT22;25670;44.782;10.356;2023-05-10T13:51:23;15.40;99.90
39983;DHT22;25670;44.782;10.356;2023-05-10T13:56:16;15.20;99.90
39983;DHT22;25670;44.782;10.356;2023-05-10T13:58:42;15.10;99.90
39983;DHT22;25670;44.782;10.356;2023-05-10T14:01:09;14.90;99.90
39983;DHT22;25670;44.782;10.356;2023-05-10T14:03:35;14.80;99.90
39983;DHT22;25670;44.782;10.356;2023-05-10T14:06:02;14.70;99.90
39983;DHT22;25670;44.782;10.356;2023-05-10T14:08:28;14.60;99.90
39983;DHT22;25670;44.782;10.356;2023-05-10T14:10:54;14.50;99.90
39983;DHT22;25670;44.782;10.356;2023-05-10T14:13:22;14.50;99.90
39983;DHT22;25670;44.782;10.356;2023-05-10T14:15:49;14.70;99.90
39983;DHT22;25670;44.782;10.356;2023-05-10T14:18:15;14.90;99.90
39983;DHT22;25670;44.782;10.356;2023-05-10T14:20:42;15.00;99.90
39983;DHT22;25670;44.782;10.356;2023-05-10T14:23:12;15.10;99.90
39983;DHT22;25670;44.782;10.356;2023-05-10T14:25:40;15.00;99.90
39983;DHT22;25670;44.782;10.356;2023-05-10T14:28:06;14.90;99.90
39983;DHT22;25670;44.782;10.356;2023-05-10T14:30:32;14.90;99.90
39983;DHT22;25670;44.782;10.356;2023-05-10T14:33:01;14.80;99.90
39983;DHT22;25670;44.782;10.356;2023-05-10T14:35:28;14.60;99.90
39983;DHT22;25670;44.782;10.356;2023-05-10T14:38:00;14.60;99.90
39983;DHT22;25670;44.782;10.356;2023-05-10T14:40:26;14.60;99.90
39983;DHT22;25670;44.782;10.356;2023-05-10T14:42:53;14.70;99.90
39983;DHT22;25670;44.782;10.356;2023-05-10T14:45:20;14.60;99.90
39983;DHT22;25670;44.782;10.356;2023-05-10T14:47:50;14.50;99.90
39983;DHT22;25670;44.782;10.356;2023-05-10T14:52:44;14.70;99.90
39983;DHT22;25670;44.782;10.356;2023-05-10T14:55:10;14.50;99.90
39983;DHT22;25670;44.782;10.356;2023-05-10T14:57:36;14.60;99.90
39983;DHT22;25670;44.782;10.356;2023-05-10T15:00:06;14.50;99.90
39983;DHT22;25670;44.782;10.356;2023-05-10T15:02:33;14.30;99.90
39983;DHT22;25670;44.782;10.356;2023-05-10T15:04:59;14.10;99.90
39983;DHT22;25670;44.782;10.356;2023-05-10T15:07:25;14.10;99.90
39983;DHT22;25670;44.782;10.356;2023-05-10T15:09:51;14.10;99.90
39983;DHT22;25670;44.782;10.356;2023-05-10T15:12:23;14.00;99.90
39983;DHT22;25670;44.782;10.356;2023-05-10T15:14:50;13.90;99.90
39983;DHT22;25670;44.782;10.356;2023-05-10T15:17:16;13.80;99.90
39983;DHT22;25670;44.782;10.356;2023-05-10T15:19:42;13.90;99.90
39983;DHT22;25670;44.782;10.356;2023-05-10T15:22:08;13.90;99.90
39983;DHT22;25670;44.782;10.356;2023-05-10T15:24:36;14.10;99.90
39983;DHT22;25670;44.782;10.356;2023-05-10T15:27:02;14.10;99.90
39983;DHT22;25670;44.782;10.356;2023-05-10T15:29:28;14.10;99.90
39983;DHT22;25670;44.782;10.356;2023-05-10T15:31:55;14.10;99.90
39983;DHT22;25670;44.782;10.356;2023-05-10T15:34:21;14.00;99.90
39983;DHT22;25670;44.782;10.356;2023-05-10T15:36:48;14.00;99.90
39983;DHT22;25670;44.782;10.356;2023-05-10T15:39:14;13.90;99.90
39983;DHT22;25670;44.782;10.356;2023-05-10T15:41:40;14.00;99.90
39983;DHT22;25670;44.782;10.356;2023-05-10T15:44:06;14.00;99.90
39983;DHT22;25670;44.782;10.356;2023-05-10T15:46:33;14.00;99.90
39983;DHT22;25670;44.782;10.356;2023-05-10T15:48:59;13.90;99.90
39983;DHT22;25670;44.782;10.356;2023-05-10T15:51:26;13.90;99.90
39983;DHT22;25670;44.782;10.356;2023-05-10T15:53:52;13.80;99.90
39983;DHT22;25670;44.782;10.356;2023-05-10T15:56:19;13.70;99.90
39983;DHT22;25670;44.782;10.356;2023-05-10T15:58:45;13.70;99.90
39983;DHT22;25670;44.782;10.356;2023-05-10T16:01:11;13.80;99.90
39983;DHT22;25670;44.782;10.356;2023-05-10T16:03:38;13.70;99.90
39983;DHT22;25670;44.782;10.356;2023-05-10T16:06:04;13.60;99.90
39983;DHT22;25670;44.782;10.356;2023-05-10T16:08:31;13.60;99.90
39983;DHT22;25670;44.782;10.356;2023-05-10T16:10:59;13.70;99.90
39983;DHT22;25670;44.782;10.356;2023-05-10T16:13:25;13.70;99.90
39983;DHT22;25670;44.782;10.356;2023-05-10T16:18:19;13.70;99.90
39983;DHT22;25670;44.782;10.356;2023-05-10T16:25:40;13.70;99.90
39983;DHT22;25670;44.782;10.356;2023-05-10T16:30:32;13.60;99.90
39983;DHT22;25670;44.782;10.356;2023-05-10T16:33:00;13.70;99.90
39983;DHT22;25670;44.782;10.356;2023-05-10T16:35:26;13.60;99.90
39983;DHT22;25670;44.782;10.356;2023-05-10T16:37:54;14.20;99.90
39983;DHT22;25670;44.782;10.356;2023-05-10T16:40:21;13.50;99.90
39983;DHT22;25670;44.782;10.356;2023-05-10T16:42:49;13.50;99.90
39983;DHT22;25670;44.782;10.356;2023-05-10T16:45:15;13.60;99.90
39983;DHT22;25670;44.782;10.356;2023-05-10T16:47:41;13.40;99.90
39983;DHT22;25670;44.782;10.356;2023-05-10T16:50:08;13.50;99.90
39983;DHT22;25670;44.782;10.356;2023-05-10T16:52:35;15.30;99.90
39983;DHT22;25670;44.782;10.356;2023-05-10T16:57:29;10.00;99.90
39983;DHT22;25670;44.782;10.356;2023-05-10T16:59:56;13.30;99.90
39983;DHT22;25670;44.782;10.356;2023-05-10T17:02:22;13.50;99.90
39983;DHT22;25670;44.782;10.356;2023-05-10T17:04:48;13.40;99.90
39983;DHT22;25670;44.782;10.356;2023-05-10T17:07:15;13.40;99.90
39983;DHT22;25670;44.782;10.356;2023-05-10T17:09:41;13.40;99.90
39983;DHT22;25670;44.782;10.356;2023-05-10T17:12:09;14.00;99.90
39983;DHT22;25670;44.782;10.356;2023-05-10T17:14:36;13.70;99.90
39983;DHT22;25670;44.782;10.356;2023-05-10T17:19:29;13.60;99.90
39983;DHT22;25670;44.782;10.356;2023-05-10T17:21:56;13.70;99.90
39983;DHT22;25670;44.782;10.356;2023-05-10T17:24:22;13.50;99.90
39983;DHT22;25670;44.782;10.356;2023-05-10T17:26:48;13.60;99.90
39983;DHT22;25670;44.782;10.356;2023-05-10T17:29:15;13.60;99.90
39983;DHT22;25670;44.782;10.356;2023-05-10T17:31:41;13.60;99.90
39983;DHT22;25670;44.782;10.356;2023-05-10T17:34:07;13.60;99.90
39983;DHT22;25670;44.782;10.356;2023-05-10T17:36:33;13.50;99.90
39983;DHT22;25670;44.782;10.356;2023-05-10T17:38:59;13.50;99.90
39983;DHT22;25670;44.782;10.356;2023-05-10T17:41:26;13.40;99.90
39983;DHT22;25670;44.782;10.356;2023-05-10T17:43:53;13.30;99.90
39983;DHT22;25670;44.782;10.356;2023-05-10T17:46:19;13.40;99.90
39983;DHT22;25670;44.782;10.356;2023-05-10T17:48:45;13.30;99.90
39983;DHT22;25670;44.782;10.356;2023-05-10T17:51:11;13.30;99.90
39983;DHT22;25670;44.782;10.356;2023-05-10T17:53:38;13.30;99.90
39983;DHT22;25670;44.782;10.356;2023-05-10T17:56:05;13.30;99.90
39983;DHT22;25670;44.782;10.356;2023-05-10T17:58:32;13.30;99.90
39983;DHT22;25670;44.782;10.356;2023-05-10T18:00:58;13.30;99.90
39983;DHT22;25670;44.782;10.356;2023-05-10T18:03:24;13.10;99.90
39983;DHT22;25670;44.782;10.356;2023-05-10T18:05:50;13.20;99.90
39983;DHT22;25670;44.782;10.356;2023-05-10T18:08:17;13.10;99.90
39983;DHT22;25670;44.782;10.356;2023-05-10T18:10:48;13.10;99.90
39983;DHT22;25670;44.782;10.356;2023-05-10T18:13:14;14.00;99.90
39983;DHT22;25670;44.782;10.356;2023-05-10T18:15:40;13.10;99.90
39983;DHT22;25670;44.782;10.356;2023-05-10T18:18:06;13.00;99.90
39983;DHT22;25670;44.782;10.356;2023-05-10T18:20:33;13.10;99.90
39983;DHT22;25670;44.782;10.356;2023-05-10T18:23:00;12.90;99.90
39983;DHT22;25670;44.782;10.356;2023-05-10T18:25:26;12.60;99.90
39983;DHT22;25670;44.782;10.356;2023-05-10T18:27:53;13.00;99.90
39983;DHT22;25670;44.782;10.356;2023-05-10T18:30:19;13.00;99.90
39983;DHT22;25670;44.782;10.356;2023-05-10T18:32:45;13.10;99.90
39983;DHT22;25670;44.782;10.356;2023-05-10T18:37:38;12.90;99.90
39983;DHT22;25670;44.782;10.356;2023-05-10T18:40:05;12.80;99.90
39983;DHT22;25670;44.782;10.356;2023-05-10T18:42:34;13.00;99.90
39983;DHT22;25670;44.782;10.356;2023-05-10T18:45:00;12.90;99.90
39983;DHT22;25670;44.782;10.356;2023-05-10T18:47:26;12.90;99.90